AQQ10 IFIS: Internet Flight Information System
logo dgac
Martes 27 de Febrero del 2024
Buscar por aerodromo o helipuerto
Ingrese nombre de aeródromo, localidad o designador OACI:
METAR del 27-02-2024 a las 22:00 UTC
Para mayor información visite www.meteochile.gob.cl
METAR SCVD 272200Z 30005KT 9999 BKN023 18/14 Q1014
Viento: dirección 300 grados, velocidad 5 nudos
Visibilidad: 10 km o más
Nubes: Nublado a 2300 pies sobre el nivel del aeródromo
Temperatura: 18 °C
Rocío: 14 °C
Humedad_relativa: 77%
Presión: 1014 hPa
METAR del 27-02-2024 a las 21:00 UTC
Para mayor información visite www.meteochile.gob.cl
METAR SCVD 272100Z 04003KT 9999 OVC026 17/14 Q1014
Viento: dirección 040 grados, velocidad 3 nudos
Visibilidad: 10 km o más
Nubes: Cubierto a 2600 pies sobre el nivel del aeródromo
Temperatura: 17 °C
Rocío: 14 °C
Humedad_relativa: 83%
Presión: 1014 hPa
METAR del 27-02-2024 a las 20:00 UTC
Para mayor información visite www.meteochile.gob.cl
METAR SCVD 272000Z 36004KT 9999 -RA OVC029 16/15 Q1014
Viento: dirección 360 grados, velocidad 4 nudos
Visibilidad: 10 km o más
Débil Lluvia
Nubes: Cubierto a 2900 pies sobre el nivel del aeródromo
Temperatura: 16 °C
Rocío: 15 °C
Humedad_relativa: 94%
Presión: 1014 hPa
SPECI del 27-02-2024 a las 19:22 UTC
Para mayor información visite www.meteochile.gob.cl
SPECI SCVD 271922Z 32005KT 5000 -RA BKN034 BKN040 OVC047 16/14 Q1015
Viento: dirección 320 grados, velocidad 5 nudos
Visibilidad: 5000 metros
Débil Lluvia
Nubes: Nublado a 3400 pies sobre el nivel del aeródromo
Nubes: Nublado a 4000 pies sobre el nivel del aeródromo
Nubes: Cubierto a 4700 pies sobre el nivel del aeródromo
Temperatura: 16 °C
Rocío: 14 °C
Humedad_relativa: 88%
Presión: 1015 hPa
METAR del 27-02-2024 a las 19:00 UTC
Para mayor información visite www.meteochile.gob.cl
METAR SCVD 271900Z 26004KT 9999 -SHRA BKN040 OVC047 18/14 Q1015
Viento: dirección 260 grados, velocidad 4 nudos
Visibilidad: 10 km o más
Débil ChubascosLluvia
Nubes: Nublado a 4000 pies sobre el nivel del aeródromo
Nubes: Cubierto a 4700 pies sobre el nivel del aeródromo
Temperatura: 18 °C
Rocío: 14 °C
Humedad_relativa: 77%
Presión: 1015 hPa
METAR del 27-02-2024 a las 18:00 UTC
Para mayor información visite www.meteochile.gob.cl
METAR SCVD 271800Z 24010KT 9999 -SHRA BKN050 OVC081 20/13 Q1015
Viento: dirección 240 grados, velocidad 10 nudos
Visibilidad: 10 km o más
Débil ChubascosLluvia
Nubes: Nublado a 5000 pies sobre el nivel del aeródromo
Nubes: Cubierto a 8100 pies sobre el nivel del aeródromo
Temperatura: 20 °C
Rocío: 13 °C
Humedad_relativa: 64%
Presión: 1015 hPa
METAR del 27-02-2024 a las 17:00 UTC
Para mayor información visite www.meteochile.gob.cl
METAR SCVD 271700Z 28004KT CAVOK 23/12 Q1015
Viento: dirección 280 grados, velocidad 4 nudos
Visibilidad: 10 km o más,
    sin nubes bajo los 5.000 pies o bajo del MSA (Mínimo de Seguridad del Aeródromo),
    sin cumulonimbus, y sin fenómenos de tiempo significativo en el aeródromo o alrededores
Temperatura: 23 °C
Rocío: 12 °C
Humedad_relativa: 50%
Presión: 1015 hPa
METAR del 27-02-2024 a las 16:00 UTC
Para mayor información visite www.meteochile.gob.cl
METAR SCVD 271600Z VRB02KT CAVOK 20/12 Q1015
Viento: dirección variable, velocidad 2 nudos
Visibilidad: 10 km o más,
    sin nubes bajo los 5.000 pies o bajo del MSA (Mínimo de Seguridad del Aeródromo),
    sin cumulonimbus, y sin fenómenos de tiempo significativo en el aeródromo o alrededores
Temperatura: 20 °C
Rocío: 12 °C
Humedad_relativa: 60%
Presión: 1015 hPa
METAR del 27-02-2024 a las 15:00 UTC
Para mayor información visite www.meteochile.gob.cl
METAR SCVD 271500Z 24003KT CAVOK 16/13 Q1016
Viento: dirección 240 grados, velocidad 3 nudos
Visibilidad: 10 km o más,
    sin nubes bajo los 5.000 pies o bajo del MSA (Mínimo de Seguridad del Aeródromo),
    sin cumulonimbus, y sin fenómenos de tiempo significativo en el aeródromo o alrededores
Temperatura: 16 °C
Rocío: 13 °C
Humedad_relativa: 82%
Presión: 1016 hPa
SPECI del 27-02-2024 a las 14:03 UTC
Para mayor información visite www.meteochile.gob.cl
SPECI SCVD 271403Z VRB02KT 9999 SCT003 14/13 Q1016
Viento: dirección variable, velocidad 2 nudos
Visibilidad: 10 km o más
Nubes: Nubosidad parcial a 300 pies sobre el nivel del aeródromo
Temperatura: 14 °C
Rocío: 13 °C
Humedad_relativa: 94%
Presión: 1016 hPa